sensor_id;sensor_type;location;lat;lon;timestamp;pressure;altitude;pressure_sealevel;temperature;humidity
51123;BME280;37162;41.724;13.346;2023-01-09T00:00:18;96561.38;;;17.52;66.55
51123;BME280;37162;41.724;13.346;2023-01-09T00:02:44;96540.28;;;17.44;66.64
51123;BME280;37162;41.724;13.346;2023-01-09T00:05:11;96556.81;;;17.52;66.84
51123;BME280;37162;41.724;13.346;2023-01-09T00:07:37;96550.38;;;17.53;66.95
51123;BME280;37162;41.724;13.346;2023-01-09T00:10:04;96553.31;;;17.52;67.00
51123;BME280;37162;41.724;13.346;2023-01-09T00:12:30;96538.75;;;17.48;66.85
51123;BME280;37162;41.724;13.346;2023-01-09T00:14:55;96537.19;;;17.52;66.91
51123;BME280;37162;41.724;13.346;2023-01-09T00:17:21;96539.06;;;17.51;66.51
51123;BME280;37162;41.724;13.346;2023-01-09T00:19:46;96540.94;;;17.51;66.79
51123;BME280;37162;41.724;13.346;2023-01-09T00:22:12;96528.56;;;17.50;66.70
51123;BME280;37162;41.724;13.346;2023-01-09T00:24:37;96521.34;;;17.50;66.75
51123;BME280;37162;41.724;13.346;2023-01-09T00:27:03;96515.97;;;17.50;66.63
51123;BME280;37162;41.724;13.346;2023-01-09T00:29:29;96508.72;;;17.51;66.51
51123;BME280;37162;41.724;13.346;2023-01-09T00:31:54;96515.13;;;17.50;66.47
51123;BME280;37162;41.724;13.346;2023-01-09T00:34:19;96508.94;;;17.49;66.44
51123;BME280;37162;41.724;13.346;2023-01-09T00:36:45;96498.19;;;17.49;66.65
51123;BME280;37162;41.724;13.346;2023-01-09T00:39:10;96495.75;;;17.48;66.52
51123;BME280;37162;41.724;13.346;2023-01-09T00:41:45;96495.75;;;17.48;66.47
51123;BME280;37162;41.724;13.346;2023-01-09T00:46:46;96468.16;;;17.35;66.59
51123;BME280;37162;41.724;13.346;2023-01-09T00:49:14;96488.78;;;17.47;66.39
51123;BME280;37162;41.724;13.346;2023-01-09T00:51:41;96472.06;;;17.45;66.53
51123;BME280;37162;41.724;13.346;2023-01-09T00:54:10;96483.41;;;17.47;66.73
51123;BME280;37162;41.724;13.346;2023-01-09T00:56:38;96472.66;;;17.47;66.62
51123;BME280;37162;41.724;13.346;2023-01-09T00:59:05;96461.09;;;17.46;66.93
51123;BME280;37162;41.724;13.346;2023-01-09T01:01:31;96454.59;;;17.42;66.84
51123;BME280;37162;41.724;13.346;2023-01-09T01:03:56;96450.38;;;17.46;66.92
51123;BME280;37162;41.724;13.346;2023-01-09T01:06:22;96447.91;;;17.45;66.69
51123;BME280;37162;41.724;13.346;2023-01-09T01:09:05;96442.22;;;17.41;66.93
51123;BME280;37162;41.724;13.346;2023-01-09T01:11:32;96443.13;;;17.47;66.72
51123;BME280;37162;41.724;13.346;2023-01-09T01:13:58;96439.38;;;17.48;66.65
51123;BME280;37162;41.724;13.346;2023-01-09T01:16:23;96437.75;;;17.47;66.89
51123;BME280;37162;41.724;13.346;2023-01-09T01:18:48;96421.63;;;17.47;66.63
51123;BME280;37162;41.724;13.346;2023-01-09T01:21:15;96413.50;;;17.42;66.77
51123;BME280;37162;41.724;13.346;2023-01-09T01:23:41;96406.59;;;17.46;66.73
51123;BME280;37162;41.724;13.346;2023-01-09T01:26:13;96415.19;;;17.48;66.69
51123;BME280;37162;41.724;13.346;2023-01-09T01:28:39;96416.25;;;17.47;66.82
51123;BME280;37162;41.724;13.346;2023-01-09T01:31:06;96407.38;;;17.46;66.81
51123;BME280;37162;41.724;13.346;2023-01-09T01:33:34;96403.63;;;17.47;66.68
51123;BME280;37162;41.724;13.346;2023-01-09T01:36:05;96400.16;;;17.47;66.87
51123;BME280;37162;41.724;13.346;2023-01-09T01:38:31;96404.72;;;17.46;66.65
51123;BME280;37162;41.724;13.346;2023-01-09T01:40:58;96390.47;;;17.46;66.76
51123;BME280;37162;41.724;13.346;2023-01-09T01:43:24;96397.47;;;17.47;66.72
51123;BME280;37162;41.724;13.346;2023-01-09T01:45:49;96388.59;;;17.46;66.79
51123;BME280;37162;41.724;13.346;2023-01-09T01:48:23;96388.81;;;17.45;67.07
51123;BME280;37162;41.724;13.346;2023-01-09T01:50:58;96381.34;;;17.47;67.07
51123;BME280;37162;41.724;13.346;2023-01-09T01:53:30;96397.19;;;17.48;66.94
51123;BME280;37162;41.724;13.346;2023-01-09T01:58:33;96384.84;;;17.47;67.38
51123;BME280;37162;41.724;13.346;2023-01-09T02:01:02;96378.59;;;17.42;67.56
51123;BME280;37162;41.724;13.346;2023-01-09T02:03:28;96386.72;;;17.47;67.30
51123;BME280;37162;41.724;13.346;2023-01-09T02:05:54;96379.41;;;17.42;67.29
51123;BME280;37162;41.724;13.346;2023-01-09T02:08:20;96389.06;;;17.43;67.13
51123;BME280;37162;41.724;13.346;2023-01-09T02:10:47;96382.97;;;17.48;66.95
51123;BME280;37162;41.724;13.346;2023-01-09T02:13:13;96380.28;;;17.48;67.05
51123;BME280;37162;41.724;13.346;2023-01-09T02:18:45;96367.09;;;17.46;67.19
51123;BME280;37162;41.724;13.346;2023-01-09T02:21:59;96368.97;;;17.46;66.83
51123;BME280;37162;41.724;13.346;2023-01-09T02:24:35;96359.88;;;17.47;66.92
51123;BME280;37162;41.724;13.346;2023-01-09T02:27:25;96362.53;;;17.47;66.86
51123;BME280;37162;41.724;13.346;2023-01-09T02:40:46;96349.13;;;17.47;67.08
51123;BME280;37162;41.724;13.346;2023-01-09T02:43:18;96324.53;;;17.38;67.53
51123;BME280;37162;41.724;13.346;2023-01-09T02:45:43;96324.94;;;17.47;67.39
51123;BME280;37162;41.724;13.346;2023-01-09T02:48:10;96318.50;;;17.48;67.45
51123;BME280;37162;41.724;13.346;2023-01-09T02:50:45;96322.00;;;17.48;67.80
51123;BME280;37162;41.724;13.346;2023-01-09T03:04:03;96258.28;;;17.44;67.24
51123;BME280;37162;41.724;13.346;2023-01-09T03:06:48;96261.56;;;17.46;67.06
51123;BME280;37162;41.724;13.346;2023-01-09T03:09:19;96266.94;;;17.46;67.07
51123;BME280;37162;41.724;13.346;2023-01-09T03:11:51;96275.00;;;17.46;67.09
51123;BME280;37162;41.724;13.346;2023-01-09T03:14:22;96247.28;;;17.45;67.11
51123;BME280;37162;41.724;13.346;2023-01-09T03:16:53;96251.84;;;17.45;67.02
51123;BME280;37162;41.724;13.346;2023-01-09T03:19:21;96245.69;;;17.44;67.04
51123;BME280;37162;41.724;13.346;2023-01-09T03:21:49;96243.78;;;17.45;67.20
51123;BME280;37162;41.724;13.346;2023-01-09T03:24:14;96250.25;;;17.44;67.15
51123;BME280;37162;41.724;13.346;2023-01-09T03:26:40;96253.72;;;17.44;66.90
51123;BME280;37162;41.724;13.346;2023-01-09T03:29:06;96253.41;;;17.41;67.11
51123;BME280;37162;41.724;13.346;2023-01-09T03:31:32;96252.91;;;17.44;66.99
51123;BME280;37162;41.724;13.346;2023-01-09T03:33:57;96248.38;;;17.44;67.23
51123;BME280;37162;41.724;13.346;2023-01-09T03:36:24;96244.06;;;17.43;67.29
51123;BME280;37162;41.724;13.346;2023-01-09T03:38:50;96243.00;;;17.44;67.30
51123;BME280;37162;41.724;13.346;2023-01-09T03:41:16;96255.88;;;17.42;67.69
51123;BME280;37162;41.724;13.346;2023-01-09T03:43:41;96266.34;;;17.44;67.27
51123;BME280;37162;41.724;13.346;2023-01-09T03:46:07;96261.97;;;17.37;67.35
51123;BME280;37162;41.724;13.346;2023-01-09T03:48:32;96255.59;;;17.44;67.32
51123;BME280;37162;41.724;13.346;2023-01-09T03:50:58;96260.72;;;17.45;67.64
51123;BME280;37162;41.724;13.346;2023-01-09T03:53:25;96254.31;;;17.46;68.09
51123;BME280;37162;41.724;13.346;2023-01-09T03:55:53;96245.34;;;17.41;67.80
51123;BME280;37162;41.724;13.346;2023-01-09T03:58:20;96241.38;;;17.43;67.57
51123;BME280;37162;41.724;13.346;2023-01-09T04:00:46;96239.50;;;17.44;67.54
51123;BME280;37162;41.724;13.346;2023-01-09T04:03:16;96234.13;;;17.44;67.38
51123;BME280;37162;41.724;13.346;2023-01-09T04:05:43;96210.63;;;17.34;67.27
51123;BME280;37162;41.724;13.346;2023-01-09T04:08:09;96214.53;;;17.43;67.36
51123;BME280;37162;41.724;13.346;2023-01-09T04:10:34;96216.41;;;17.43;67.17
51123;BME280;37162;41.724;13.346;2023-01-09T04:12:59;96207.28;;;17.44;67.11
51123;BME280;37162;41.724;13.346;2023-01-09T04:15:25;96203.78;;;17.43;67.22
51123;BME280;37162;41.724;13.346;2023-01-09T04:17:50;96195.72;;;17.43;67.36
51123;BME280;37162;41.724;13.346;2023-01-09T04:20:16;96180.03;;;17.35;67.31
51123;BME280;37162;41.724;13.346;2023-01-09T04:22:42;96184.97;;;17.43;67.18
51123;BME280;37162;41.724;13.346;2023-01-09T04:25:08;96184.97;;;17.43;67.38
51123;BME280;37162;41.724;13.346;2023-01-09T04:27:34;96179.59;;;17.43;67.36
51123;BME280;37162;41.724;13.346;2023-01-09T04:29:59;96162.63;;;17.37;67.54
51123;BME280;37162;41.724;13.346;2023-01-09T04:32:25;96167.78;;;17.44;67.75
51123;BME280;37162;41.724;13.346;2023-01-09T04:34:52;96162.44;;;17.44;67.64
51123;BME280;37162;41.724;13.346;2023-01-09T04:37:18;96152.75;;;17.43;67.69
51123;BME280;37162;41.724;13.346;2023-01-09T04:39:43;96153.56;;;17.44;67.90
51123;BME280;37162;41.724;13.346;2023-01-09T04:42:09;96149.00;;;17.44;67.64
51123;BME280;37162;41.724;13.346;2023-01-09T04:44:35;96143.63;;;17.44;67.40
51123;BME280;37162;41.724;13.346;2023-01-09T04:47:01;96127.72;;;17.37;67.43
51123;BME280;37162;41.724;13.346;2023-01-09T04:49:26;96132.09;;;17.44;67.54
51123;BME280;37162;41.724;13.346;2023-01-09T04:51:52;96122.94;;;17.45;67.25
51123;BME280;37162;41.724;13.346;2023-01-09T04:54:18;96129.06;;;17.40;67.59
51123;BME280;37162;41.724;13.346;2023-01-09T04:56:44;96128.31;;;17.45;67.48
51123;BME280;37162;41.724;13.346;2023-01-09T04:59:09;96122.16;;;17.44;67.28
51123;BME280;37162;41.724;13.346;2023-01-09T05:01:35;96130.19;;;17.44;67.48
51123;BME280;37162;41.724;13.346;2023-01-09T05:04:00;96122.16;;;17.44;67.55
51123;BME280;37162;41.724;13.346;2023-01-09T05:06:26;96120.28;;;17.45;67.28
51123;BME280;37162;41.724;13.346;2023-01-09T05:08:51;96112.41;;;17.38;67.42
51123;BME280;37162;41.724;13.346;2023-01-09T05:11:17;96112.47;;;17.43;67.35
51123;BME280;37162;41.724;13.346;2023-01-09T05:13:43;96119.47;;;17.44;67.49
51123;BME280;37162;41.724;13.346;2023-01-09T05:16:08;96118.66;;;17.44;67.43
51123;BME280;37162;41.724;13.346;2023-01-09T05:18:34;96100.06;;;17.37;67.31
51123;BME280;37162;41.724;13.346;2023-01-09T05:20:59;96106.56;;;17.41;67.57
51123;BME280;37162;41.724;13.346;2023-01-09T05:23:25;96102.00;;;17.42;68.00
51123;BME280;37162;41.724;13.346;2023-01-09T05:25:50;96116.78;;;17.44;68.02
51123;BME280;37162;41.724;13.346;2023-01-09T05:28:16;96094.44;;;17.38;68.19
51123;BME280;37162;41.724;13.346;2023-01-09T05:30:41;96102.53;;;17.44;68.16
51123;BME280;37162;41.724;13.346;2023-01-09T05:33:07;96104.16;;;17.45;67.96
51123;BME280;37162;41.724;13.346;2023-01-09T05:35:33;96092.81;;;17.37;67.68
51123;BME280;37162;41.724;13.346;2023-01-09T05:37:58;96120.28;;;17.45;67.80
51123;BME280;37162;41.724;13.346;2023-01-09T05:40:24;96119.47;;;17.44;67.47
51123;BME280;37162;41.724;13.346;2023-01-09T05:42:49;96122.94;;;17.45;67.61
51123;BME280;37162;41.724;13.346;2023-01-09T05:45:15;96107.66;;;17.45;67.69
51123;BME280;37162;41.724;13.346;2023-01-09T05:47:41;96101.72;;;17.43;67.56
51123;BME280;37162;41.724;13.346;2023-01-09T05:50:08;96102.53;;;17.44;67.51
51123;BME280;37162;41.724;13.346;2023-01-09T05:52:34;96098.25;;;17.43;67.56
51123;BME280;37162;41.724;13.346;2023-01-09T05:54:59;96093.69;;;17.43;67.49
51123;BME280;37162;41.724;13.346;2023-01-09T05:57:25;96090.44;;;17.41;67.24
51123;BME280;37162;41.724;13.346;2023-01-09T05:59:50;96093.13;;;17.41;67.45
51123;BME280;37162;41.724;13.346;2023-01-09T06:02:15;96085.31;;;17.40;67.60
51123;BME280;37162;41.724;13.346;2023-01-09T06:04:41;96079.94;;;17.40;67.39
51123;BME280;37162;41.724;13.346;2023-01-09T06:07:08;96077.50;;;17.38;67.48
51123;BME280;37162;41.724;13.346;2023-01-09T06:09:34;96071.34;;;17.37;67.44
51123;BME280;37162;41.724;13.346;2023-01-09T06:11:59;96068.88;;;17.36;67.63
51123;BME280;37162;41.724;13.346;2023-01-09T06:14:24;96072.41;;;17.36;67.43
51123;BME280;37162;41.724;13.346;2023-01-09T06:16:50;96072.41;;;17.36;67.49
51123;BME280;37162;41.724;13.346;2023-01-09T06:19:15;96057.09;;;17.37;67.36
51123;BME280;37162;41.724;13.346;2023-01-09T06:21:41;96050.88;;;17.31;67.56
51123;BME280;37162;41.724;13.346;2023-01-09T06:24:06;96050.09;;;17.36;67.43
51123;BME280;37162;41.724;13.346;2023-01-09T06:26:32;96048.25;;;17.36;67.88
51123;BME280;37162;41.724;13.346;2023-01-09T06:28:57;96022.91;;;17.27;67.64
51123;BME280;37162;41.724;13.346;2023-01-09T06:31:25;96032.63;;;17.33;67.54
51123;BME280;37162;41.724;13.346;2023-01-09T06:33:50;96032.13;;;17.36;67.49
51123;BME280;37162;41.724;13.346;2023-01-09T06:36:16;96025.91;;;17.36;67.68
51123;BME280;37162;41.724;13.346;2023-01-09T06:38:42;96027.81;;;17.35;67.54
51123;BME280;37162;41.724;13.346;2023-01-09T06:41:08;95996.38;;;17.36;67.44
51123;BME280;37162;41.724;13.346;2023-01-09T06:43:34;95990.22;;;17.35;67.63
51123;BME280;37162;41.724;13.346;2023-01-09T06:45:59;95984.84;;;17.35;67.61
51123;BME280;37162;41.724;13.346;2023-01-09T06:48:25;95979.47;;;17.35;67.62
51123;BME280;37162;41.724;13.346;2023-01-09T06:50:51;95972.50;;;17.34;67.56
51123;BME280;37162;41.724;13.346;2023-01-09T06:53:16;95951.53;;;17.31;67.49
51123;BME280;37162;41.724;13.346;2023-01-09T06:55:42;95942.16;;;17.34;67.59
51123;BME280;37162;41.724;13.346;2023-01-09T06:58:08;95924.97;;;17.35;67.44
51123;BME280;37162;41.724;13.346;2023-01-09T07:00:34;95929.25;;;17.36;67.85
51123;BME280;37162;41.724;13.346;2023-01-09T07:02:59;95915.03;;;17.35;67.77
51123;BME280;37162;41.724;13.346;2023-01-09T07:05:25;95911.31;;;17.36;67.75
51123;BME280;37162;41.724;13.346;2023-01-09T07:07:50;95910.47;;;17.36;67.79
51123;BME280;37162;41.724;13.346;2023-01-09T07:10:16;95914.81;;;17.37;67.88
51123;BME280;37162;41.724;13.346;2023-01-09T07:12:42;95909.63;;;17.30;68.04
51123;BME280;37162;41.724;13.346;2023-01-09T07:15:07;95928.22;;;17.37;67.90
51123;BME280;37162;41.724;13.346;2023-01-09T07:17:33;95924.72;;;17.36;68.10
51123;BME280;37162;41.724;13.346;2023-01-09T07:19:59;95914.75;;;17.32;67.98
51123;BME280;37162;41.724;13.346;2023-01-09T07:22:25;95932.78;;;17.36;67.89
51123;BME280;37162;41.724;13.346;2023-01-09T07:24:50;95927.13;;;17.33;67.88
51123;BME280;37162;41.724;13.346;2023-01-09T07:27:15;95947.03;;;17.37;67.69
51123;BME280;37162;41.724;13.346;2023-01-09T07:29:41;95951.59;;;17.36;67.77
51123;BME280;37162;41.724;13.346;2023-01-09T07:32:06;95943.53;;;17.36;67.96
51123;BME280;37162;41.724;13.346;2023-01-09T07:34:32;95955.06;;;17.37;67.88
51123;BME280;37162;41.724;13.346;2023-01-09T07:36:58;95952.09;;;17.33;67.75
51123;BME280;37162;41.724;13.346;2023-01-09T07:39:23;95960.69;;;17.35;67.62
51123;BME280;37162;41.724;13.346;2023-01-09T07:41:48;95948.06;;;17.36;67.76
51123;BME280;37162;41.724;13.346;2023-01-09T07:44:14;95943.53;;;17.36;67.69
51123;BME280;37162;41.724;13.346;2023-01-09T07:46:40;95950.75;;;17.36;67.82
51123;BME280;37162;41.724;13.346;2023-01-09T07:49:05;95951.59;;;17.36;67.63
51123;BME280;37162;41.724;13.346;2023-01-09T07:51:31;95951.59;;;17.36;67.57
51123;BME280;37162;41.724;13.346;2023-01-09T07:53:56;95942.69;;;17.36;67.97
51123;BME280;37162;41.724;13.346;2023-01-09T07:56:22;95922.25;;;17.30;67.71
51123;BME280;37162;41.724;13.346;2023-01-09T07:58:47;95932.78;;;17.36;67.89
51123;BME280;37162;41.724;13.346;2023-01-09T08:01:13;95943.22;;;17.33;68.20
51123;BME280;37162;41.724;13.346;2023-01-09T08:03:38;95959.38;;;17.38;68.10
51123;BME280;37162;41.724;13.346;2023-01-09T08:06:04;95970.13;;;17.38;68.30
51123;BME280;37162;41.724;13.346;2023-01-09T08:08:29;95963.94;;;17.37;68.41
51123;BME280;37162;41.724;13.346;2023-01-09T08:10:55;95953.38;;;17.31;68.35
51123;BME280;37162;41.724;13.346;2023-01-09T08:13:20;95948.91;;;17.36;68.43
51123;BME280;37162;41.724;13.346;2023-01-09T08:15:46;95947.81;;;17.37;68.19
51123;BME280;37162;41.724;13.346;2023-01-09T08:18:11;95941.88;;;17.35;68.04
51123;BME280;37162;41.724;13.346;2023-01-09T08:20:37;95937.31;;;17.36;68.07
51123;BME280;37162;41.724;13.346;2023-01-09T08:23:02;95931.94;;;17.36;67.98
51123;BME280;37162;41.724;13.346;2023-01-09T08:25:27;95936.50;;;17.35;68.05
51123;BME280;37162;41.724;13.346;2023-01-09T08:27:53;95931.16;;;17.35;67.83
51123;BME280;37162;41.724;13.346;2023-01-09T08:30:18;95936.78;;;17.34;67.88
51123;BME280;37162;41.724;13.346;2023-01-09T08:32:49;95933.84;;;17.35;67.96
51123;BME280;37162;41.724;13.346;2023-01-09T08:35:15;95923.59;;;17.27;68.05
51123;BME280;37162;41.724;13.346;2023-01-09T08:37:44;95943.22;;;17.33;67.90
51123;BME280;37162;41.724;13.346;2023-01-09T08:40:11;95921.41;;;17.24;67.68
51123;BME280;37162;41.724;13.346;2023-01-09T08:42:39;95924.06;;;17.24;68.00
51123;BME280;37162;41.724;13.346;2023-01-09T08:45:23;95939.16;;;17.30;67.91
51123;BME280;37162;41.724;13.346;2023-01-09T08:48:07;95938.63;;;17.28;68.05
51123;BME280;37162;41.724;13.346;2023-01-09T08:50:32;95930.56;;;17.28;67.98
51123;BME280;37162;41.724;13.346;2023-01-09T08:52:58;95927.88;;;17.28;68.22
51123;BME280;37162;41.724;13.346;2023-01-09T08:55:23;95921.41;;;17.24;68.11
51123;BME280;37162;41.724;13.346;2023-01-09T08:57:50;95917.41;;;17.27;67.99
51123;BME280;37162;41.724;13.346;2023-01-09T09:00:21;95908.28;;;17.28;68.22
51123;BME280;37162;41.724;13.346;2023-01-09T09:02:55;95894.06;;;17.27;68.10
51123;BME280;37162;41.724;13.346;2023-01-09T09:05:22;95887.56;;;17.23;68.25
51123;BME280;37162;41.724;13.346;2023-01-09T09:07:51;95885.19;;;17.27;68.30
51123;BME280;37162;41.724;13.346;2023-01-09T09:10:23;95870.13;;;17.26;68.33
51123;BME280;37162;41.724;13.346;2023-01-09T09:12:51;95866.63;;;17.25;68.26
51123;BME280;37162;41.724;13.346;2023-01-09T09:15:17;95869.31;;;17.25;68.12
51123;BME280;37162;41.724;13.346;2023-01-09T09:17:54;95872.81;;;17.26;68.32
51123;BME280;37162;41.724;13.346;2023-01-09T09:20:21;95878.19;;;17.26;68.00
51123;BME280;37162;41.724;13.346;2023-01-09T09:22:47;95873.81;;;17.15;68.15
51123;BME280;37162;41.724;13.346;2023-01-09T09:25:14;95880.88;;;17.26;68.33
51123;BME280;37162;41.724;13.346;2023-01-09T09:27:40;95870.09;;;17.21;68.50
51123;BME280;37162;41.724;13.346;2023-01-09T09:30:07;95877.38;;;17.25;68.31
51123;BME280;37162;41.724;13.346;2023-01-09T09:32:32;95870.13;;;17.26;68.37
51123;BME280;37162;41.724;13.346;2023-01-09T09:34:58;95868.50;;;17.25;68.49
51123;BME280;37162;41.724;13.346;2023-01-09T09:37:23;95867.72;;;17.24;68.28
51123;BME280;37162;41.724;13.346;2023-01-09T09:39:49;95848.91;;;17.24;68.44
51123;BME280;37162;41.724;13.346;2023-01-09T09:46:44;95825.84;;;17.23;68.40
51123;BME280;37162;41.724;13.346;2023-01-09T09:49:08;95818.53;;;17.19;68.41
51123;BME280;37162;41.724;13.346;2023-01-09T09:51:51;95819.66;;;17.23;68.68
51123;BME280;37162;41.724;13.346;2023-01-09T09:54:26;95802.44;;;17.19;68.59
51123;BME280;37162;41.724;13.346;2023-01-09T09:56:56;95798.69;;;17.20;68.73
51123;BME280;37162;41.724;13.346;2023-01-09T09:59:25;95797.09;;;17.24;68.78
51123;BME280;37162;41.724;13.346;2023-01-09T10:04:47;95767.53;;;17.14;68.58
51123;BME280;37162;41.724;13.346;2023-01-09T10:07:27;95774.03;;;17.23;68.53
51123;BME280;37162;41.724;13.346;2023-01-09T10:09:59;95756.56;;;17.20;68.46
51123;BME280;37162;41.724;13.346;2023-01-09T10:12:34;95745.78;;;17.15;68.46
51123;BME280;37162;41.724;13.346;2023-01-09T10:15:13;95769.47;;;17.23;68.59
51123;BME280;37162;41.724;13.346;2023-01-09T10:26:31;95742.84;;;17.22;68.34
51123;BME280;37162;41.724;13.346;2023-01-09T10:29:29;95723.25;;;17.21;68.55
51123;BME280;37162;41.724;13.346;2023-01-09T10:34:44;95732.97;;;17.22;68.78
51123;BME280;37162;41.724;13.346;2023-01-09T10:37:25;95731.28;;;17.16;68.58
51123;BME280;37162;41.724;13.346;2023-01-09T10:45:51;95717.66;;;17.23;68.89
51123;BME280;37162;41.724;13.346;2023-01-09T10:51:01;95722.75;;;17.24;68.91
51123;BME280;37162;41.724;13.346;2023-01-09T10:53:36;95726.25;;;17.25;69.12
51123;BME280;37162;41.724;13.346;2023-01-09T10:56:12;95713.91;;;17.24;69.12
51123;BME280;37162;41.724;13.346;2023-01-09T10:58:41;95696.72;;;17.25;68.91
51123;BME280;37162;41.724;13.346;2023-01-09T11:01:08;95698.31;;;17.26;68.84
51123;BME280;37162;41.724;13.346;2023-01-09T11:03:33;95701.78;;;17.21;68.62
51123;BME280;37162;41.724;13.346;2023-01-09T11:05:59;95701.81;;;17.26;68.71
51123;BME280;37162;41.724;13.346;2023-01-09T11:08:38;95692.16;;;17.25;68.61
51123;BME280;37162;41.724;13.346;2023-01-09T11:11:08;95686.78;;;17.25;68.68
51123;BME280;37162;41.724;13.346;2023-01-09T11:13:35;95680.63;;;17.25;68.45
51123;BME280;37162;41.724;13.346;2023-01-09T11:16:16;95680.63;;;17.25;68.71
51123;BME280;37162;41.724;13.346;2023-01-09T11:18:49;95668.53;;;17.22;68.83
51123;BME280;37162;41.724;13.346;2023-01-09T11:21:38;95671.75;;;17.24;68.59
51123;BME280;37162;41.724;13.346;2023-01-09T11:24:24;95681.69;;;17.24;68.59
51123;BME280;37162;41.724;13.346;2023-01-09T11:27:16;95677.13;;;17.24;68.60
51123;BME280;37162;41.724;13.346;2023-01-09T11:32:33;95673.63;;;17.24;68.66
51123;BME280;37162;41.724;13.346;2023-01-09T11:35:00;95648.59;;;17.08;68.86
51123;BME280;37162;41.724;13.346;2023-01-09T11:37:29;95681.41;;;17.25;69.04
51123;BME280;37162;41.724;13.346;2023-01-09T11:39:57;95687.59;;;17.26;68.94
51123;BME280;37162;41.724;13.346;2023-01-09T11:42:27;95679.81;;;17.24;69.28
51123;BME280;37162;41.724;13.346;2023-01-09T11:45:20;95676.63;;;17.27;69.11
51123;BME280;37162;41.724;13.346;2023-01-09T11:47:46;95671.22;;;17.22;69.37
51123;BME280;37162;41.724;13.346;2023-01-09T11:50:23;95670.16;;;17.28;69.13
51123;BME280;37162;41.724;13.346;2023-01-09T11:53:15;95679.28;;;17.27;69.13
51123;BME280;37162;41.724;13.346;2023-01-09T11:55:42;95676.84;;;17.26;69.01
51123;BME280;37162;41.724;13.346;2023-01-09T11:58:19;95691.66;;;17.28;69.09
51123;BME280;37162;41.724;13.346;2023-01-09T12:01:05;95688.97;;;17.28;69.06
51123;BME280;37162;41.724;13.346;2023-01-09T12:03:38;95691.66;;;17.28;68.84
51123;BME280;37162;41.724;13.346;2023-01-09T12:11:27;95694.31;;;17.28;69.02
51123;BME280;37162;41.724;13.346;2023-01-09T12:19:55;95640.38;;;17.30;68.67
51123;BME280;37162;41.724;13.346;2023-01-09T12:25:00;95609.78;;;17.36;68.75
51123;BME280;37162;41.724;13.346;2023-01-09T12:27:50;95606.84;;;17.37;68.62
51123;BME280;37162;41.724;13.346;2023-01-09T12:30:23;95601.22;;;17.39;68.86
51123;BME280;37162;41.724;13.346;2023-01-09T12:32:58;95580.28;;;17.41;68.67
51123;BME280;37162;41.724;13.346;2023-01-09T12:35:40;95563.09;;;17.42;68.64
51123;BME280;37162;41.724;13.346;2023-01-09T12:44:13;95583.78;;;17.42;68.70
51123;BME280;37162;41.724;13.346;2023-01-09T12:52:41;95582.41;;;17.39;68.70
51123;BME280;37162;41.724;13.346;2023-01-09T12:55:24;95574.06;;;17.35;68.56
51123;BME280;37162;41.724;13.346;2023-01-09T12:57:54;95569.50;;;17.36;68.70
51123;BME280;37162;41.724;13.346;2023-01-09T13:00:52;95539.97;;;17.26;68.68
51123;BME280;37162;41.724;13.346;2023-01-09T13:03:33;95572.47;;;17.34;69.01
51123;BME280;37162;41.724;13.346;2023-01-09T13:06:05;95554.16;;;17.21;68.75
51123;BME280;37162;41.724;13.346;2023-01-09T13:14:50;95615.97;;;17.31;68.72
51123;BME280;37162;41.724;13.346;2023-01-09T13:17:22;95613.53;;;17.30;68.89
51123;BME280;37162;41.724;13.346;2023-01-09T13:19:48;95632.31;;;17.30;68.89
51123;BME280;37162;41.724;13.346;2023-01-09T13:22:14;95640.63;;;17.28;68.81
51123;BME280;37162;41.724;13.346;2023-01-09T13:27:21;95647.63;;;17.29;69.10
51123;BME280;37162;41.724;13.346;2023-01-09T13:29:51;95665.59;;;17.29;69.07
51123;BME280;37162;41.724;13.346;2023-01-09T13:32:32;95657.56;;;17.29;69.54
51123;BME280;37162;41.724;13.346;2023-01-09T13:35:03;95667.47;;;17.28;69.63
51123;BME280;37162;41.724;13.346;2023-01-09T13:37:33;95665.06;;;17.27;69.62
51123;BME280;37162;41.724;13.346;2023-01-09T13:40:25;95657.03;;;17.27;69.26
51123;BME280;37162;41.724;13.346;2023-01-09T13:43:03;95644.38;;;17.22;69.22
51123;BME280;37162;41.724;13.346;2023-01-09T13:45:31;95659.69;;;17.27;69.29
51123;BME280;37162;41.724;13.346;2023-01-09T13:50:33;95657.03;;;17.27;68.80
51123;BME280;37162;41.724;13.346;2023-01-09T13:58:29;95648.13;;;17.26;68.88
51123;BME280;37162;41.724;13.346;2023-01-09T14:00:58;95641.97;;;17.26;68.58
51123;BME280;37162;41.724;13.346;2023-01-09T14:03:35;95635.78;;;17.25;68.60
51123;BME280;37162;41.724;13.346;2023-01-09T14:06:04;95619.09;;;17.08;68.77
51123;BME280;37162;41.724;13.346;2023-01-09T14:08:36;95637.94;;;17.23;68.75
51123;BME280;37162;41.724;13.346;2023-01-09T14:11:03;95628.00;;;17.24;68.68
51123;BME280;37162;41.724;13.346;2023-01-09T14:13:32;95618.06;;;17.24;68.72
51123;BME280;37162;41.724;13.346;2023-01-09T14:16:05;95611.34;;;17.22;68.66
51123;BME280;37162;41.724;13.346;2023-01-09T14:18:37;95614.84;;;17.22;68.85
51123;BME280;37162;41.724;13.346;2023-01-09T14:21:05;95617.25;;;17.24;69.08
51123;BME280;37162;41.724;13.346;2023-01-09T14:23:35;95613.50;;;17.25;69.24
51123;BME280;37162;41.724;13.346;2023-01-09T14:26:02;95615.38;;;17.19;69.31
51123;BME280;37162;41.724;13.346;2023-01-09T14:28:30;95630.13;;;17.22;69.52
51123;BME280;37162;41.724;13.346;2023-01-09T14:38:29;95635.25;;;17.23;69.38
51123;BME280;37162;41.724;13.346;2023-01-09T14:41:01;95640.06;;;17.26;69.33
51123;BME280;37162;41.724;13.346;2023-01-09T14:43:38;95639.84;;;17.28;68.86
51123;BME280;37162;41.724;13.346;2023-01-09T14:46:13;95632.59;;;17.28;69.13
51123;BME280;37162;41.724;13.346;2023-01-09T14:48:58;95640.63;;;17.28;69.12